<?xml version="1.0" encoding="UTF-8" standalone="no" ?>
<gpx xmlns="http://www.topografix.com/GPX/1/1" xmlns:xsi="http://www.w3.org/2001/XMLSchema-instance" xsi:schemaLocation="http://www.topografix.com/GPX/1/1 http://www.topografix.com/GPX/1/1/gpx.xsd" version="1.1" creator="VisuGPX - https://www.visugpx.com">
  <metadata>
    <name>15648851-St André la Cote  PATACHON  Marie</name>
  </metadata>
  <trk>
    <name><![CDATA[15648851-St André la Cote  PATACHON  Marie]]></name>
    <extensions>
      <line xmlns="http://www.topografix.com/GPX/gpx_style/0/2">
        <color>0000FF</color>
        <width>4</width>
      </line>
    </extensions>
    <trkseg>
      <trkpt lat="45.62628" lon="4.61571">
        <ele>623</ele>
        <time>2022-10-06T19:42:51Z</time>
      </trkpt>
      <trkpt lat="45.62627" lon="4.61572">
        <ele>623</ele>
        <time>2022-10-06T19:42:53Z</time>
      </trkpt>
      <trkpt lat="45.62632" lon="4.6156">
        <ele>626</ele>
        <time>2022-10-06T19:43:06Z</time>
      </trkpt>
      <trkpt lat="45.62696" lon="4.61595">
        <ele>629</ele>
        <time>2022-10-06T19:44:37Z</time>
      </trkpt>
      <trkpt lat="45.6273" lon="4.61603">
        <ele>631</ele>
        <time>2022-10-06T19:45:23Z</time>
      </trkpt>
      <trkpt lat="45.62756" lon="4.61596">
        <ele>634</ele>
        <time>2022-10-06T19:45:58Z</time>
      </trkpt>
      <trkpt lat="45.62763" lon="4.61588">
        <ele>635</ele>
        <time>2022-10-06T19:46:10Z</time>
      </trkpt>
      <trkpt lat="45.62787" lon="4.61561">
        <ele>637</ele>
        <time>2022-10-06T19:46:51Z</time>
      </trkpt>
      <trkpt lat="45.62793" lon="4.61537">
        <ele>640</ele>
        <time>2022-10-06T19:47:15Z</time>
      </trkpt>
      <trkpt lat="45.62809" lon="4.61467">
        <ele>653</ele>
        <time>2022-10-06T19:48:24Z</time>
      </trkpt>
      <trkpt lat="45.62811" lon="4.61471">
        <ele>652</ele>
        <time>2022-10-06T19:48:28Z</time>
      </trkpt>
      <trkpt lat="45.628" lon="4.61511">
        <ele>644</ele>
        <time>2022-10-06T19:49:08Z</time>
      </trkpt>
      <trkpt lat="45.62809" lon="4.61474">
        <ele>651</ele>
        <time>2022-10-06T19:49:45Z</time>
      </trkpt>
      <trkpt lat="45.628" lon="4.61423">
        <ele>664</ele>
        <time>2022-10-06T19:50:34Z</time>
      </trkpt>
      <trkpt lat="45.62783" lon="4.61401">
        <ele>672</ele>
        <time>2022-10-06T19:51:05Z</time>
      </trkpt>
      <trkpt lat="45.62754" lon="4.61389">
        <ele>680</ele>
        <time>2022-10-06T19:51:45Z</time>
      </trkpt>
      <trkpt lat="45.62723" lon="4.61383">
        <ele>683</ele>
        <time>2022-10-06T19:52:27Z</time>
      </trkpt>
      <trkpt lat="45.62664" lon="4.61376">
        <ele>686</ele>
        <time>2022-10-06T19:53:46Z</time>
      </trkpt>
      <trkpt lat="45.62622" lon="4.61326">
        <ele>698</ele>
        <time>2022-10-06T19:54:59Z</time>
      </trkpt>
      <trkpt lat="45.62587" lon="4.61298">
        <ele>703</ele>
        <time>2022-10-06T19:55:52Z</time>
      </trkpt>
      <trkpt lat="45.62528" lon="4.61295">
        <ele>701</ele>
        <time>2022-10-06T19:57:11Z</time>
      </trkpt>
      <trkpt lat="45.62449" lon="4.6126">
        <ele>706</ele>
        <time>2022-10-06T19:59:01Z</time>
      </trkpt>
      <trkpt lat="45.62387" lon="4.61213">
        <ele>717</ele>
        <time>2022-10-06T20:00:35Z</time>
      </trkpt>
      <trkpt lat="45.62328" lon="4.61163">
        <ele>725</ele>
        <time>2022-10-06T20:02:06Z</time>
      </trkpt>
      <trkpt lat="45.62258" lon="4.61109">
        <ele>732</ele>
        <time>2022-10-06T20:03:52Z</time>
      </trkpt>
      <trkpt lat="45.62209" lon="4.61072">
        <ele>737</ele>
        <time>2022-10-06T20:05:06Z</time>
      </trkpt>
      <trkpt lat="45.6219" lon="4.61053">
        <ele>741</ele>
        <time>2022-10-06T20:05:37Z</time>
      </trkpt>
      <trkpt lat="45.62144" lon="4.6104">
        <ele>735</ele>
        <time>2022-10-06T20:06:40Z</time>
      </trkpt>
      <trkpt lat="45.6222" lon="4.61034">
        <ele>752</ele>
        <time>2022-10-06T20:08:22Z</time>
      </trkpt>
      <trkpt lat="45.62335" lon="4.61072">
        <ele>757</ele>
        <time>2022-10-06T20:10:59Z</time>
      </trkpt>
      <trkpt lat="45.62484" lon="4.61078">
        <ele>770</ele>
        <time>2022-10-06T20:14:18Z</time>
      </trkpt>
      <trkpt lat="45.62644" lon="4.61009">
        <ele>780</ele>
        <time>2022-10-06T20:18:01Z</time>
      </trkpt>
      <trkpt lat="45.62719" lon="4.60924">
        <ele>783</ele>
        <time>2022-10-06T20:20:09Z</time>
      </trkpt>
      <trkpt lat="45.62717" lon="4.60864">
        <ele>787</ele>
        <time>2022-10-06T20:21:05Z</time>
      </trkpt>
      <trkpt lat="45.62693" lon="4.60776">
        <ele>799</ele>
        <time>2022-10-06T20:22:33Z</time>
      </trkpt>
      <trkpt lat="45.62686" lon="4.60698">
        <ele>806</ele>
        <time>2022-10-06T20:23:46Z</time>
      </trkpt>
      <trkpt lat="45.62701" lon="4.60625">
        <ele>809</ele>
        <time>2022-10-06T20:24:57Z</time>
      </trkpt>
      <trkpt lat="45.62748" lon="4.60525">
        <ele>818</ele>
        <time>2022-10-06T20:26:50Z</time>
      </trkpt>
      <trkpt lat="45.62827" lon="4.60497">
        <ele>813</ele>
        <time>2022-10-06T20:28:38Z</time>
      </trkpt>
      <trkpt lat="45.62875" lon="4.6038">
        <ele>821</ele>
        <time>2022-10-06T20:30:45Z</time>
      </trkpt>
      <trkpt lat="45.62893" lon="4.60277">
        <ele>831</ele>
        <time>2022-10-06T20:32:24Z</time>
      </trkpt>
      <trkpt lat="45.6291" lon="4.6016">
        <ele>840</ele>
        <time>2022-10-06T20:34:16Z</time>
        <extensions>
          <visugpx:TrkExtension xmlns:visugpx="https://www.visugpx.com/editgpx/">
            <visugpx:node>1</visugpx:node>
            </visugpx:TrkExtension>
        </extensions>
      </trkpt>
    </trkseg>
  </trk>
</gpx>